createdAt,value
2019-02-12T00:01:52.740Z,1.90
2019-02-12T00:04:23.360Z,1.85
2019-02-12T00:06:53.713Z,2.15
2019-02-12T00:09:24.086Z,1.95
2019-02-12T00:11:54.440Z,1.82
2019-02-12T00:14:24.811Z,2.20
2019-02-12T00:16:55.158Z,1.95
2019-02-12T00:19:25.525Z,1.70
2019-02-12T00:21:55.877Z,1.70
2019-02-12T00:24:26.250Z,1.60
2019-02-12T00:26:56.599Z,2.02
2019-02-12T00:29:26.984Z,2.00
2019-02-12T00:31:57.322Z,2.12
2019-02-12T00:34:27.710Z,2.10
2019-02-12T00:36:58.085Z,2.10
2019-02-12T00:39:28.436Z,2.35
2019-02-12T00:41:58.806Z,2.22
2019-02-12T00:44:29.158Z,1.90
2019-02-12T00:46:59.523Z,1.70
2019-02-12T00:49:29.883Z,2.33
2019-02-12T00:52:00.256Z,1.57
2019-02-12T00:54:30.615Z,1.95
2019-02-12T00:57:00.990Z,1.70
2019-02-12T00:59:31.350Z,2.08
2019-02-12T01:02:01.722Z,2.75
2019-02-12T01:04:32.077Z,1.60
2019-02-12T01:07:02.440Z,1.67
2019-02-12T01:09:32.788Z,1.98
2019-02-12T01:12:03.171Z,2.75
2019-02-12T01:14:33.538Z,1.57
2019-02-12T01:17:14.621Z,2.10
2019-02-12T01:19:44.965Z,1.65
2019-02-12T01:22:15.337Z,2.27
2019-02-12T01:24:45.693Z,3.20
2019-02-12T01:27:16.078Z,1.80
2019-02-12T01:29:46.431Z,1.55
2019-02-12T01:32:16.806Z,2.05
2019-02-12T01:34:47.170Z,1.72
2019-02-12T01:37:17.551Z,1.80
2019-02-12T01:39:47.895Z,1.92
2019-02-12T01:42:18.267Z,1.85
2019-02-12T01:44:48.621Z,2.47
2019-02-12T01:47:19.006Z,2.05
2019-02-12T01:50:10.833Z,1.70
2019-02-12T01:52:41.207Z,1.77
2019-02-12T01:55:12.596Z,1.52
2019-02-12T01:57:42.968Z,1.52
2019-02-12T02:00:14.670Z,2.77
2019-02-12T02:02:45.025Z,2.27
2019-02-12T02:05:15.373Z,1.32
2019-02-12T02:07:45.748Z,2.17
2019-02-12T02:10:17.708Z,1.62
2019-02-12T02:12:48.093Z,2.17
2019-02-12T02:15:18.504Z,2.20
2019-02-12T02:17:48.880Z,1.52
2019-02-12T02:20:19.231Z,2.35
2019-02-12T02:22:49.604Z,1.72
2019-02-12T02:25:19.956Z,1.30
2019-02-12T02:27:50.336Z,1.67
2019-02-12T02:30:20.692Z,1.45
2019-02-12T02:32:51.070Z,1.60
2019-02-12T02:35:21.421Z,2.60
2019-02-12T02:37:51.802Z,2.10
2019-02-12T02:40:22.148Z,1.77
2019-02-12T02:42:53.487Z,2.10
2019-02-12T02:45:23.838Z,1.82
2019-02-12T02:47:54.208Z,2.25
2019-02-12T02:50:24.559Z,1.90
2019-02-12T02:52:54.936Z,1.70
2019-02-12T02:55:25.293Z,1.98
2019-02-12T02:57:55.667Z,1.85
2019-02-12T03:00:26.021Z,1.75
2019-02-12T03:02:56.401Z,1.72
2019-02-12T03:05:26.746Z,2.22
2019-02-12T03:07:57.134Z,1.55
2019-02-12T03:10:27.496Z,2.22
2019-02-12T03:12:57.872Z,1.62
2019-02-12T03:15:28.224Z,1.67
2019-02-12T03:17:59.565Z,2.27
2019-02-12T03:20:29.929Z,1.90
2019-02-12T03:23:00.309Z,1.72
2019-02-12T03:25:30.656Z,2.35
2019-02-12T03:28:01.033Z,2.00
2019-02-12T03:30:31.396Z,2.20
2019-02-12T03:33:01.778Z,1.37
2019-02-12T03:35:32.136Z,2.45
2019-02-12T03:38:02.510Z,1.40
2019-02-12T03:40:32.857Z,1.45
2019-02-12T03:43:03.241Z,1.50
2019-02-12T03:45:33.594Z,1.57
2019-02-12T03:48:03.982Z,1.60
2019-02-12T03:50:34.332Z,1.47
2019-02-12T03:53:04.704Z,1.70
2019-02-12T03:55:35.056Z,1.52
2019-02-12T03:58:05.440Z,1.40
2019-02-12T04:00:35.800Z,1.87
2019-02-12T04:03:09.653Z,1.30
2019-02-12T04:05:40.284Z,1.20
2019-02-12T04:08:10.655Z,1.52
2019-02-12T04:10:40.993Z,1.80
2019-02-12T04:13:11.393Z,2.12
2019-02-12T04:15:41.815Z,1.30
2019-02-12T04:18:12.187Z,1.12
2019-02-12T04:20:42.534Z,1.47
2019-02-12T04:23:12.909Z,1.17
2019-02-12T04:25:43.308Z,1.50
2019-02-12T04:28:14.657Z,1.70
2019-02-12T04:30:45.016Z,1.60
2019-02-12T04:33:15.391Z,1.60
2019-02-12T04:35:45.745Z,1.50
2019-02-12T04:38:16.116Z,1.17
2019-02-12T04:40:46.473Z,1.65
2019-02-12T04:43:16.834Z,1.50
2019-02-12T04:45:47.181Z,2.65
2019-02-12T04:48:17.559Z,1.37
2019-02-12T04:50:47.911Z,1.35
2019-02-12T04:53:18.289Z,1.50
2019-02-12T04:55:48.667Z,2.08
2019-02-12T04:58:19.027Z,1.32
2019-02-12T05:00:49.584Z,1.25
2019-02-12T05:03:19.950Z,1.82
2019-02-12T05:05:50.341Z,1.27
2019-02-12T05:08:20.693Z,1.80
2019-02-12T05:11:04.184Z,1.72
2019-02-12T05:13:34.565Z,1.45
2019-02-12T05:16:04.948Z,1.52
2019-02-12T05:18:35.295Z,1.50
2019-02-12T05:21:05.641Z,1.87
2019-02-12T05:23:36.020Z,2.47
2019-02-12T05:26:06.368Z,2.33
2019-02-12T05:28:36.780Z,2.37
2019-02-12T05:31:07.130Z,4.92
2019-02-12T05:33:37.511Z,2.17
2019-02-12T05:36:07.862Z,2.40
2019-02-12T05:38:38.248Z,2.08
2019-02-12T05:41:08.605Z,2.00
2019-02-12T05:43:38.987Z,1.60
2019-02-12T05:46:09.334Z,2.20
2019-02-12T05:48:39.714Z,2.08
2019-02-12T05:51:10.144Z,1.95
2019-02-12T05:53:40.590Z,2.02
2019-02-12T05:56:11.215Z,2.25
2019-02-12T05:58:41.602Z,2.45
2019-02-12T06:01:11.949Z,2.90
2019-02-12T06:03:42.350Z,1.95
2019-02-12T06:06:12.734Z,2.05
2019-02-12T06:08:44.024Z,2.05
2019-02-12T06:11:14.377Z,2.87
2019-02-12T06:13:44.757Z,2.08
2019-02-12T06:16:15.112Z,2.95
2019-02-12T06:18:45.491Z,1.55
2019-02-12T06:21:15.920Z,2.08
2019-02-12T06:23:46.280Z,1.85
2019-02-12T06:26:16.626Z,1.80
2019-02-12T06:28:47.014Z,1.80
2019-02-12T06:31:17.372Z,1.35
2019-02-12T06:33:47.759Z,1.62
2019-02-12T06:36:18.106Z,1.67
2019-02-12T06:38:48.494Z,1.75
2019-02-12T06:41:18.922Z,1.77
2019-02-12T06:43:49.285Z,1.30
2019-02-12T06:46:19.651Z,1.67
2019-02-12T06:48:50.014Z,2.40
2019-02-12T06:51:20.376Z,1.20
2019-02-12T06:53:50.762Z,1.87
2019-02-12T06:56:21.089Z,1.40
2019-02-12T06:58:51.461Z,2.08
2019-02-12T07:01:21.809Z,1.40
2019-02-12T07:03:56.696Z,1.65
2019-02-12T07:07:04.570Z,1.80
2019-02-12T07:09:39.555Z,1.57
2019-02-12T07:12:22.811Z,1.72
2019-02-12T07:15:01.608Z,1.20
2019-02-12T07:18:18.455Z,1.67
2019-02-12T07:20:53.430Z,2.08
2019-02-12T07:24:00.971Z,1.92
2019-02-12T07:26:53.390Z,1.67
2019-02-12T07:29:52.043Z,1.75
2019-02-12T07:32:32.702Z,1.15
2019-02-12T07:35:19.582Z,0.93
2019-02-12T07:38:33.993Z,1.37
2019-02-12T07:41:54.584Z,1.30
2019-02-12T07:44:40.725Z,1.30
2019-02-12T07:47:38.404Z,1.30
2019-02-12T07:50:13.365Z,1.00
2019-02-12T07:53:09.068Z,1.20
2019-02-12T07:56:08.298Z,1.20
2019-02-12T07:58:52.132Z,1.20
2019-02-12T08:01:51.246Z,1.12
2019-02-12T08:04:31.972Z,1.80
2019-02-12T08:07:26.200Z,1.17
2019-02-12T08:10:06.516Z,1.95
2019-02-12T08:12:56.201Z,2.17
2019-02-12T08:15:51.049Z,2.30
2019-02-12T08:18:49.980Z,1.50
2019-02-12T08:21:28.196Z,1.27
2019-02-12T08:24:26.213Z,1.27
2019-02-12T08:27:15.778Z,1.30
2019-02-12T08:30:29.591Z,1.45
2019-02-12T08:33:16.645Z,1.30
2019-02-12T08:35:57.333Z,1.35
2019-02-12T08:39:04.750Z,1.55
2019-02-12T08:42:02.518Z,1.35
2019-02-12T08:44:49.419Z,1.40
2019-02-12T08:47:36.291Z,1.32
2019-02-12T08:50:22.943Z,1.32
2019-02-12T08:53:19.795Z,1.90
2019-02-12T08:56:11.188Z,2.15
2019-02-12T08:59:09.418Z,1.50
2019-02-12T09:01:55.750Z,1.20
2019-02-12T09:04:48.613Z,1.40
2019-02-12T09:07:32.155Z,1.62
2019-02-12T09:10:46.389Z,1.57
2019-02-12T09:13:32.940Z,2.08
2019-02-12T09:16:10.739Z,1.50
2019-02-12T09:19:06.221Z,1.70
2019-02-12T09:22:16.051Z,1.72
2019-02-12T09:25:10.528Z,1.25
2019-02-12T09:28:20.004Z,1.17
2019-02-12T09:31:17.351Z,1.52
2019-02-12T09:34:28.302Z,1.87
2019-02-12T09:37:18.103Z,1.17
2019-02-12T09:40:20.210Z,1.27
2019-02-12T09:43:06.400Z,1.60
2019-02-12T09:45:52.534Z,1.62
2019-02-12T09:48:40.117Z,1.72
2019-02-12T09:51:57.568Z,1.57
2019-02-12T09:55:05.302Z,1.60
2019-02-12T09:57:51.529Z,1.27
2019-02-12T10:00:35.329Z,1.50
2019-02-12T10:03:30.945Z,1.75
2019-02-12T10:06:24.394Z,1.50
2019-02-12T10:09:46.999Z,1.87
2019-02-12T10:12:49.739Z,2.50
2019-02-12T10:15:36.412Z,1.70
2019-02-12T10:18:41.614Z,1.50
2019-02-12T10:22:02.221Z,1.35
2019-02-12T10:24:48.957Z,1.92
2019-02-12T10:27:37.891Z,1.98
2019-02-12T10:30:39.640Z,1.82
2019-02-12T10:33:09.996Z,1.98
2019-02-12T10:35:52.201Z,1.70
2019-02-12T10:38:41.920Z,2.42
2019-02-12T10:41:12.273Z,2.25
2019-02-12T10:43:43.392Z,2.72
2019-02-12T10:46:13.733Z,2.20
2019-02-12T10:48:44.100Z,1.80
2019-02-12T10:51:14.456Z,2.05
2019-02-12T10:53:45.056Z,1.95
2019-02-12T10:56:15.428Z,1.82
2019-02-12T10:58:45.876Z,2.22
2019-02-12T11:01:16.873Z,1.92
2019-02-12T11:03:47.249Z,1.98
2019-02-12T11:06:17.622Z,2.02
2019-02-12T11:08:48.042Z,1.85
2019-02-12T11:11:18.408Z,2.08
2019-02-12T11:13:48.866Z,1.82
2019-02-12T11:16:19.227Z,1.55
2019-02-12T11:18:49.578Z,1.45
2019-02-12T11:21:19.959Z,1.70
2019-02-12T11:23:50.319Z,1.45
2019-02-12T11:26:20.709Z,1.65
2019-02-12T11:28:51.068Z,1.72
2019-02-12T11:31:21.439Z,1.52
2019-02-12T11:33:51.797Z,1.70
2019-02-12T11:36:22.179Z,1.92
2019-02-12T11:38:52.535Z,1.90
2019-02-12T11:41:22.914Z,1.32
2019-02-12T11:43:53.281Z,1.82
2019-02-12T11:46:23.758Z,1.40
2019-02-12T11:48:54.112Z,1.50
2019-02-12T11:51:24.492Z,1.90
2019-02-12T11:53:54.861Z,1.92
2019-02-12T11:56:25.250Z,1.50
2019-02-12T11:58:55.601Z,1.20
2019-02-12T12:01:27.236Z,1.70
2019-02-12T12:03:57.613Z,1.65
2019-02-12T12:06:28.953Z,1.30
2019-02-12T12:08:59.313Z,1.30
2019-02-12T12:11:29.683Z,1.40
2019-02-12T12:14:00.041Z,1.60
2019-02-12T12:16:30.433Z,1.65
2019-02-12T12:19:00.785Z,1.98
2019-02-12T12:21:31.163Z,2.42
2019-02-12T12:24:01.517Z,2.60
2019-02-12T12:26:31.889Z,1.80
2019-02-12T12:29:02.277Z,1.75
2019-02-12T12:31:32.639Z,1.30
2019-02-12T12:34:03.022Z,1.45
2019-02-12T12:36:33.402Z,1.25
2019-02-12T12:39:05.032Z,1.50
2019-02-12T12:41:49.483Z,1.72
2019-02-12T12:44:19.937Z,1.82
2019-02-12T12:46:50.291Z,1.60
2019-02-12T12:49:20.663Z,1.60
2019-02-12T12:51:51.038Z,1.90
2019-02-12T12:54:21.491Z,1.82
2019-02-12T12:56:51.867Z,1.20
2019-02-12T12:59:22.241Z,1.25
2019-02-12T13:01:52.618Z,1.25
2019-02-12T13:04:22.968Z,1.77
2019-02-12T13:06:53.338Z,1.40
2019-02-12T13:09:23.696Z,1.50
2019-02-12T13:11:54.072Z,1.50
2019-02-12T13:14:24.418Z,1.20
2019-02-12T13:16:54.855Z,1.30
2019-02-12T13:19:25.192Z,1.35
2019-02-12T13:21:55.599Z,1.30
2019-02-12T13:24:25.929Z,1.90
2019-02-12T13:26:56.312Z,1.60
2019-02-12T13:29:26.665Z,2.17
2019-02-12T13:31:57.065Z,2.15
2019-02-12T13:34:27.498Z,1.85
2019-02-12T13:36:57.868Z,1.45
2019-02-12T13:39:28.216Z,1.40
2019-02-12T13:41:58.587Z,1.45
2019-02-12T13:44:28.937Z,1.42
2019-02-12T13:46:59.309Z,1.80
2019-02-12T13:49:29.659Z,1.40
2019-02-12T13:52:00.036Z,1.50
2019-02-12T13:54:30.387Z,1.32
2019-02-12T13:57:00.765Z,1.37
2019-02-12T13:59:31.176Z,1.32
2019-02-12T14:02:03.349Z,1.62
2019-02-12T14:04:34.878Z,1.82
2019-02-12T14:07:05.256Z,1.42
2019-02-12T14:09:35.621Z,1.40
2019-02-12T14:12:06.011Z,1.57
2019-02-12T14:14:36.360Z,1.70
2019-02-12T14:17:06.733Z,1.80
2019-02-12T14:19:37.086Z,1.25
2019-02-12T14:22:07.468Z,1.65
2019-02-12T14:24:38.192Z,1.67
2019-02-12T14:27:08.574Z,1.77
2019-02-12T14:29:43.842Z,1.82
2019-02-12T14:32:14.197Z,1.70
2019-02-12T14:34:44.554Z,1.57
2019-02-12T14:37:15.913Z,1.25
2019-02-12T14:39:46.273Z,1.52
2019-02-12T14:42:16.663Z,1.30
2019-02-12T14:44:47.103Z,1.30
2019-02-12T14:47:17.506Z,1.45
2019-02-12T14:49:47.869Z,1.27
2019-02-12T14:52:18.312Z,1.55
2019-02-12T14:54:48.729Z,1.65
2019-02-12T14:57:19.136Z,1.20
2019-02-12T14:59:49.520Z,1.77
2019-02-12T15:02:19.889Z,1.65
2019-02-12T15:04:50.525Z,1.55
2019-02-12T15:07:21.005Z,1.52
2019-02-12T15:09:51.353Z,1.25
2019-02-12T15:12:21.738Z,1.70
2019-02-12T15:14:52.120Z,1.17
2019-02-12T15:17:22.608Z,1.37
2019-02-12T15:19:53.098Z,1.57
2019-02-12T15:22:23.509Z,1.67
2019-02-12T15:24:53.870Z,1.70
2019-02-12T15:27:24.328Z,2.15
2019-02-12T15:29:54.936Z,1.60
2019-02-12T15:32:25.335Z,2.42
2019-02-12T15:34:55.689Z,1.60
2019-02-12T15:37:26.065Z,1.82
2019-02-12T15:39:56.431Z,1.50
2019-02-12T15:42:26.818Z,1.67
2019-02-12T15:44:57.249Z,1.80
2019-02-12T15:47:27.642Z,1.60
2019-02-12T15:50:00.707Z,1.45
2019-02-12T15:52:31.198Z,1.50
2019-02-12T15:55:01.585Z,1.50
2019-02-12T15:57:34.679Z,1.72
2019-02-12T16:00:12.392Z,1.37
2019-02-12T16:02:42.773Z,1.87
2019-02-12T16:05:14.060Z,1.42
2019-02-12T16:07:47.018Z,1.40
2019-02-12T16:10:21.084Z,2.12
2019-02-12T16:12:51.961Z,1.40
2019-02-12T16:15:24.708Z,1.40
2019-02-12T16:17:54.592Z,1.45
2019-02-12T16:20:25.010Z,1.77
2019-02-12T16:22:55.388Z,1.25
2019-02-12T16:25:25.768Z,1.27
2019-02-12T16:27:56.304Z,1.10
2019-02-12T16:30:26.655Z,1.65
2019-02-12T16:32:57.030Z,2.00
2019-02-12T16:35:27.605Z,1.60
2019-02-12T16:37:58.052Z,1.70
2019-02-12T16:40:28.401Z,1.55
2019-02-12T16:42:58.777Z,1.67
2019-02-12T16:45:39.858Z,1.52
2019-02-12T16:48:10.229Z,2.17
2019-02-12T16:50:40.578Z,3.20
2019-02-12T16:53:10.977Z,4.95
2019-02-12T16:55:41.324Z,2.33
2019-02-12T16:58:11.701Z,1.87
2019-02-12T17:00:42.504Z,2.50
2019-02-12T17:03:13.422Z,1.55
2019-02-12T17:05:43.894Z,1.70
2019-02-12T17:08:14.337Z,1.55
2019-02-12T17:10:47.525Z,1.80
2019-02-12T17:13:19.035Z,3.50
2019-02-12T17:15:49.656Z,2.90
2019-02-12T17:18:21.668Z,1.87
2019-02-12T17:20:52.024Z,1.80
2019-02-12T17:23:22.401Z,1.70
2019-02-12T17:25:52.770Z,1.57
2019-02-12T17:28:23.241Z,1.72
2019-02-12T17:30:53.872Z,1.92
2019-02-12T17:33:24.713Z,2.37
2019-02-12T17:35:55.133Z,3.52
2019-02-12T17:38:25.513Z,9.50
2019-02-12T17:40:56.839Z,7.97
2019-02-12T17:43:27.219Z,3.20
2019-02-12T17:45:57.577Z,2.00
2019-02-12T17:48:27.955Z,1.80
2019-02-12T17:50:58.304Z,2.25
2019-02-12T17:53:28.689Z,3.62
2019-02-12T17:55:59.038Z,1.80
2019-02-12T17:58:29.449Z,2.10
2019-02-12T18:00:59.804Z,1.85
2019-02-12T18:03:30.189Z,1.92
2019-02-12T18:06:00.633Z,1.87
2019-02-12T18:08:31.060Z,1.90
2019-02-12T18:11:01.446Z,2.10
2019-02-12T18:13:31.861Z,1.70
2019-02-12T18:16:02.261Z,3.55
2019-02-12T18:18:32.638Z,2.00
2019-02-12T18:21:03.044Z,2.30
2019-02-12T18:23:33.373Z,1.75
2019-02-12T18:26:04.609Z,2.65
2019-02-12T18:28:54.341Z,1.95
2019-02-12T18:31:24.784Z,2.27
2019-02-12T18:33:55.215Z,4.22
2019-02-12T18:36:25.653Z,4.20
2019-02-12T18:38:57.097Z,2.62
2019-02-12T18:41:28.554Z,2.22
2019-02-12T18:44:00.093Z,2.17
2019-02-12T18:46:33.454Z,2.00
2019-02-12T18:49:04.804Z,1.95
2019-02-12T18:51:36.246Z,2.62
2019-02-12T18:54:06.619Z,2.45
2019-02-12T18:56:41.693Z,2.22
2019-02-12T18:59:09.091Z,2.30
2019-02-12T19:01:39.442Z,2.62
2019-02-12T19:04:09.820Z,2.90
2019-02-12T19:06:40.177Z,2.87
2019-02-12T19:09:12.197Z,2.55
2019-02-12T19:11:52.701Z,2.40
2019-02-12T19:14:14.635Z,2.77
2019-02-12T19:16:45.055Z,2.52
2019-02-12T19:19:15.433Z,2.17
2019-02-12T19:21:45.781Z,2.30
2019-02-12T19:24:16.218Z,3.08
2019-02-12T19:26:49.958Z,2.75
2019-02-12T19:29:19.687Z,2.33
2019-02-12T19:31:58.996Z,2.33
2019-02-12T19:34:23.538Z,2.37
2019-02-12T19:36:53.875Z,2.45
2019-02-12T19:39:25.954Z,2.02
2019-02-12T19:41:56.308Z,2.42
2019-02-12T19:44:26.871Z,2.83
2019-02-12T19:46:57.222Z,2.37
2019-02-12T19:49:27.653Z,1.98
2019-02-12T19:51:58.274Z,2.75
2019-02-12T19:54:28.655Z,2.37
2019-02-12T19:56:59.051Z,2.95
2019-02-12T19:59:29.431Z,2.98
2019-02-12T20:01:59.819Z,2.87
2019-02-12T20:04:30.319Z,2.72
2019-02-12T20:07:00.697Z,3.05
2019-02-12T20:09:31.057Z,2.72
2019-02-12T20:12:01.434Z,3.15
2019-02-12T20:14:31.788Z,3.42
2019-02-12T20:17:02.179Z,3.92
2019-02-12T20:19:32.547Z,4.15
2019-02-12T20:22:02.931Z,3.92
2019-02-12T20:24:33.287Z,3.33
2019-02-12T20:27:06.626Z,3.70
2019-02-12T20:29:36.692Z,3.72
2019-02-12T20:32:07.077Z,4.58
2019-02-12T20:34:37.444Z,3.10
2019-02-12T20:37:07.821Z,5.10
2019-02-12T20:39:38.172Z,4.17
2019-02-12T20:42:08.549Z,3.70
2019-02-12T20:44:38.900Z,3.20
2019-02-12T20:47:09.280Z,3.72
2019-02-12T20:49:39.654Z,3.65
2019-02-12T20:52:10.016Z,3.90
2019-02-12T20:54:40.369Z,3.55
2019-02-12T20:57:15.184Z,3.83
2019-02-12T20:59:42.814Z,3.67
2019-02-12T21:02:14.259Z,3.50
2019-02-12T21:04:44.687Z,3.87
2019-02-12T21:07:15.088Z,3.40
2019-02-12T21:09:45.418Z,4.90
2019-02-12T21:12:15.798Z,4.05
2019-02-12T21:14:46.153Z,4.60
2019-02-12T21:17:16.532Z,4.05
2019-02-12T21:19:46.886Z,3.92
2019-02-12T21:22:17.261Z,3.95
2019-02-12T21:24:47.805Z,3.42
2019-02-12T21:27:23.480Z,4.58
2019-02-12T21:29:50.215Z,3.62
2019-02-12T21:32:32.589Z,4.25
2019-02-12T21:35:04.451Z,3.35
2019-02-12T21:37:36.629Z,3.62
2019-02-12T21:40:16.478Z,4.10
2019-02-12T21:42:47.146Z,4.35
2019-02-12T21:45:35.398Z,3.90
2019-02-12T21:48:06.049Z,4.05
2019-02-12T21:50:36.397Z,3.75
2019-02-12T21:53:06.870Z,4.20
2019-02-12T21:55:37.233Z,4.10
2019-02-12T21:58:07.616Z,4.10
2019-02-12T22:00:39.637Z,3.72
2019-02-12T22:03:10.009Z,3.55
2019-02-12T22:05:40.356Z,3.52
2019-02-12T22:08:10.727Z,3.72
2019-02-12T22:10:46.438Z,3.50
2019-02-12T22:13:13.151Z,3.70
2019-02-12T22:15:43.512Z,3.50
2019-02-12T22:18:13.888Z,3.55
2019-02-12T22:20:44.238Z,3.60
2019-02-12T22:23:14.609Z,4.17
2019-02-12T22:25:44.956Z,3.37
2019-02-12T22:28:15.330Z,3.95
2019-02-12T22:30:45.687Z,3.85
2019-02-12T22:33:16.064Z,4.20
2019-02-12T22:35:46.413Z,4.15
2019-02-12T22:38:16.789Z,5.37
2019-02-12T22:40:47.143Z,4.30
2019-02-12T22:43:17.522Z,5.85
2019-02-12T22:45:47.879Z,5.47
2019-02-12T22:48:18.249Z,5.97
2019-02-12T22:50:48.771Z,5.80
2019-02-12T22:53:19.146Z,6.17
2019-02-12T22:55:49.496Z,5.67
2019-02-12T22:58:19.877Z,7.12
2019-02-12T23:00:57.821Z,7.90
2019-02-12T23:03:28.193Z,8.30
2019-02-12T23:05:58.540Z,9.73
2019-02-12T23:08:28.989Z,10.18
2019-02-12T23:10:59.348Z,10.88
2019-02-12T23:13:29.720Z,10.18
2019-02-12T23:16:00.141Z,10.85
2019-02-12T23:18:30.514Z,10.18
2019-02-12T23:21:01.038Z,11.10
2019-02-12T23:23:31.414Z,12.93
2019-02-12T23:26:01.782Z,11.55
2019-02-12T23:28:32.173Z,11.55
2019-02-12T23:31:02.532Z,12.50
2019-02-12T23:33:33.883Z,13.78
2019-02-12T23:36:04.240Z,13.68
2019-02-12T23:38:34.619Z,14.63
2019-02-12T23:41:04.973Z,15.68
2019-02-12T23:43:35.346Z,15.03
2019-02-12T23:46:05.703Z,16.93
2019-02-12T23:48:36.079Z,17.35
2019-02-12T23:51:06.435Z,17.07
2019-02-12T23:53:36.814Z,17.48
2019-02-12T23:56:07.170Z,18.75
2019-02-12T23:58:37.542Z,19.02
